sensor_id;sensor_type;location;lat;lon;timestamp;temperature;humidity
4429;DHT22;2227;47.810;8.810;2022-11-23T04:46:53;2.70;99.90
4429;DHT22;2227;47.810;8.810;2022-11-23T04:49:20;2.60;99.90
4429;DHT22;2227;47.810;8.810;2022-11-23T04:51:47;2.50;99.90
4429;DHT22;2227;47.810;8.810;2022-11-23T04:54:13;2.50;99.90
4429;DHT22;2227;47.810;8.810;2022-11-23T04:56:40;2.50;99.90
4429;DHT22;2227;47.810;8.810;2022-11-23T04:59:07;2.50;99.90
4429;DHT22;2227;47.810;8.810;2022-11-23T05:01:34;2.50;99.90
4429;DHT22;2227;47.810;8.810;2022-11-23T05:04:01;2.40;99.90
4429;DHT22;2227;47.810;8.810;2022-11-23T05:06:27;2.40;99.90
4429;DHT22;2227;47.810;8.810;2022-11-23T05:08:54;2.40;99.90
4429;DHT22;2227;47.810;8.810;2022-11-23T05:11:21;2.30;99.90
4429;DHT22;2227;47.810;8.810;2022-11-23T05:16:16;2.30;99.90
4429;DHT22;2227;47.810;8.810;2022-11-23T05:18:43;2.30;99.90
4429;DHT22;2227;47.810;8.810;2022-11-23T05:21:10;2.30;99.90
4429;DHT22;2227;47.810;8.810;2022-11-23T05:23:37;2.30;99.90
4429;DHT22;2227;47.810;8.810;2022-11-23T05:26:03;2.30;99.90
4429;DHT22;2227;47.810;8.810;2022-11-23T05:28:30;2.20;99.90
4429;DHT22;2227;47.810;8.810;2022-11-23T05:31:07;2.10;99.90
4429;DHT22;2227;47.810;8.810;2022-11-23T05:33:34;2.00;99.90
4429;DHT22;2227;47.810;8.810;2022-11-23T05:36:01;2.00;99.90
4429;DHT22;2227;47.810;8.810;2022-11-23T05:38:28;2.00;99.90
4429;DHT22;2227;47.810;8.810;2022-11-23T05:40:54;2.00;99.90
4429;DHT22;2227;47.810;8.810;2022-11-23T05:43:21;2.00;99.90
4429;DHT22;2227;47.810;8.810;2022-11-23T05:45:48;2.00;99.90
4429;DHT22;2227;47.810;8.810;2022-11-23T05:48:15;1.90;99.90
4429;DHT22;2227;47.810;8.810;2022-11-23T05:50:42;1.90;99.90
4429;DHT22;2227;47.810;8.810;2022-11-23T05:53:09;1.90;99.90
4429;DHT22;2227;47.810;8.810;2022-11-23T05:55:35;1.90;99.90
4429;DHT22;2227;47.810;8.810;2022-11-23T05:58:02;1.80;99.90
4429;DHT22;2227;47.810;8.810;2022-11-23T06:00:29;1.90;99.90
4429;DHT22;2227;47.810;8.810;2022-11-23T06:03:00;1.80;99.90
4429;DHT22;2227;47.810;8.810;2022-11-23T06:05:28;1.80;99.90
4429;DHT22;2227;47.810;8.810;2022-11-23T06:07:54;1.80;99.90
4429;DHT22;2227;47.810;8.810;2022-11-23T06:10:21;1.80;99.90
4429;DHT22;2227;47.810;8.810;2022-11-23T06:12:48;1.70;99.90
4429;DHT22;2227;47.810;8.810;2022-11-23T06:15:18;1.70;99.90
4429;DHT22;2227;47.810;8.810;2022-11-23T06:17:45;1.70;99.90
4429;DHT22;2227;47.810;8.810;2022-11-23T06:20:12;1.70;99.90
4429;DHT22;2227;47.810;8.810;2022-11-23T06:22:39;1.70;99.90
4429;DHT22;2227;47.810;8.810;2022-11-23T06:25:06;1.70;99.90
4429;DHT22;2227;47.810;8.810;2022-11-23T06:27:33;1.60;99.90
4429;DHT22;2227;47.810;8.810;2022-11-23T06:30:00;1.60;99.90
4429;DHT22;2227;47.810;8.810;2022-11-23T06:32:27;1.60;99.90
4429;DHT22;2227;47.810;8.810;2022-11-23T06:34:54;1.50;99.90
4429;DHT22;2227;47.810;8.810;2022-11-23T06:37:26;1.50;99.90
4429;DHT22;2227;47.810;8.810;2022-11-23T06:39:53;1.50;99.90
4429;DHT22;2227;47.810;8.810;2022-11-23T06:42:19;1.50;99.90
4429;DHT22;2227;47.810;8.810;2022-11-23T06:45:05;1.50;99.90
4429;DHT22;2227;47.810;8.810;2022-11-23T06:47:32;1.50;99.90
4429;DHT22;2227;47.810;8.810;2022-11-23T06:49:59;1.50;99.90
4429;DHT22;2227;47.810;8.810;2022-11-23T06:52:26;1.50;99.90
4429;DHT22;2227;47.810;8.810;2022-11-23T06:54:53;1.50;99.90
4429;DHT22;2227;47.810;8.810;2022-11-23T06:57:19;1.50;99.90
4429;DHT22;2227;47.810;8.810;2022-11-23T06:59:46;1.60;99.90
4429;DHT22;2227;47.810;8.810;2022-11-23T07:02:13;1.60;99.90
4429;DHT22;2227;47.810;8.810;2022-11-23T07:04:40;1.60;99.90
4429;DHT22;2227;47.810;8.810;2022-11-23T07:07:07;1.60;99.90
4429;DHT22;2227;47.810;8.810;2022-11-23T07:09:35;1.70;99.90
4429;DHT22;2227;47.810;8.810;2022-11-23T07:12:01;1.70;99.90
4429;DHT22;2227;47.810;8.810;2022-11-23T07:14:28;1.80;99.90
4429;DHT22;2227;47.810;8.810;2022-11-23T07:16:55;1.70;99.90
4429;DHT22;2227;47.810;8.810;2022-11-23T07:19:22;1.70;99.90
4429;DHT22;2227;47.810;8.810;2022-11-23T07:21:49;1.70;99.90
4429;DHT22;2227;47.810;8.810;2022-11-23T07:24:17;1.80;99.90
4429;DHT22;2227;47.810;8.810;2022-11-23T07:26:43;1.90;99.90
4429;DHT22;2227;47.810;8.810;2022-11-23T07:29:10;2.00;99.90
4429;DHT22;2227;47.810;8.810;2022-11-23T07:31:37;2.10;99.90
4429;DHT22;2227;47.810;8.810;2022-11-23T07:34:04;2.30;99.90
4429;DHT22;2227;47.810;8.810;2022-11-23T07:36:32;2.40;99.90
4429;DHT22;2227;47.810;8.810;2022-11-23T07:38:58;2.50;99.90
4429;DHT22;2227;47.810;8.810;2022-11-23T07:41:25;2.70;99.90
4429;DHT22;2227;47.810;8.810;2022-11-23T07:43:53;2.90;99.90
4429;DHT22;2227;47.810;8.810;2022-11-23T07:46:20;3.30;99.90
4429;DHT22;2227;47.810;8.810;2022-11-23T07:48:48;3.60;99.90
4429;DHT22;2227;47.810;8.810;2022-11-23T07:51:14;3.90;99.90
4429;DHT22;2227;47.810;8.810;2022-11-23T07:53:42;4.10;99.90
4429;DHT22;2227;47.810;8.810;2022-11-23T07:56:08;4.20;99.90
4429;DHT22;2227;47.810;8.810;2022-11-23T07:58:35;4.20;99.90
4429;DHT22;2227;47.810;8.810;2022-11-23T08:01:02;4.40;99.90
4429;DHT22;2227;47.810;8.810;2022-11-23T08:03:29;4.80;99.90
4429;DHT22;2227;47.810;8.810;2022-11-23T08:05:56;5.10;99.90
4429;DHT22;2227;47.810;8.810;2022-11-23T08:08:23;5.50;99.90
4429;DHT22;2227;47.810;8.810;2022-11-23T08:10:50;6.20;99.90
4429;DHT22;2227;47.810;8.810;2022-11-23T08:13:20;7.20;99.90
4429;DHT22;2227;47.810;8.810;2022-11-23T08:15:47;8.60;99.90
4429;DHT22;2227;47.810;8.810;2022-11-23T08:18:21;9.70;99.90
4429;DHT22;2227;47.810;8.810;2022-11-23T08:20:49;11.00;99.90
4429;DHT22;2227;47.810;8.810;2022-11-23T08:23:15;12.30;99.90
4429;DHT22;2227;47.810;8.810;2022-11-23T08:25:42;13.40;99.90
4429;DHT22;2227;47.810;8.810;2022-11-23T08:28:09;14.60;99.90
4429;DHT22;2227;47.810;8.810;2022-11-23T08:30:39;15.50;99.90
4429;DHT22;2227;47.810;8.810;2022-11-23T08:33:07;16.20;99.10
4429;DHT22;2227;47.810;8.810;2022-11-23T08:35:39;16.80;96.50
4429;DHT22;2227;47.810;8.810;2022-11-23T08:38:07;17.40;94.00
4429;DHT22;2227;47.810;8.810;2022-11-23T08:40:35;17.30;93.10
4429;DHT22;2227;47.810;8.810;2022-11-23T08:43:02;17.80;91.50
4429;DHT22;2227;47.810;8.810;2022-11-23T08:45:29;18.10;90.30
4429;DHT22;2227;47.810;8.810;2022-11-23T08:48:03;18.20;90.10
4429;DHT22;2227;47.810;8.810;2022-11-23T08:50:30;18.70;88.30
4429;DHT22;2227;47.810;8.810;2022-11-23T08:52:58;19.10;85.60
4429;DHT22;2227;47.810;8.810;2022-11-23T08:55:26;19.80;82.80
4429;DHT22;2227;47.810;8.810;2022-11-23T08:57:57;20.50;79.70
4429;DHT22;2227;47.810;8.810;2022-11-23T09:00:24;21.10;76.90
4429;DHT22;2227;47.810;8.810;2022-11-23T09:02:51;21.10;74.20
4429;DHT22;2227;47.810;8.810;2022-11-23T09:05:18;20.30;75.70
4429;DHT22;2227;47.810;8.810;2022-11-23T09:07:45;20.20;75.60
4429;DHT22;2227;47.810;8.810;2022-11-23T09:10:12;20.50;75.70
4429;DHT22;2227;47.810;8.810;2022-11-23T09:12:45;21.40;72.80
4429;DHT22;2227;47.810;8.810;2022-11-23T09:15:12;22.20;69.70
4429;DHT22;2227;47.810;8.810;2022-11-23T09:17:39;23.10;66.60
4429;DHT22;2227;47.810;8.810;2022-11-23T09:20:06;23.60;64.50
4429;DHT22;2227;47.810;8.810;2022-11-23T09:22:33;24.30;61.40
4429;DHT22;2227;47.810;8.810;2022-11-23T09:25:00;24.80;57.90
4429;DHT22;2227;47.810;8.810;2022-11-23T09:27:28;24.50;58.30
4429;DHT22;2227;47.810;8.810;2022-11-23T09:29:55;25.40;57.10
4429;DHT22;2227;47.810;8.810;2022-11-23T09:32:22;24.90;55.30
4429;DHT22;2227;47.810;8.810;2022-11-23T09:34:48;24.40;56.10
4429;DHT22;2227;47.810;8.810;2022-11-23T09:37:15;24.30;56.30
4429;DHT22;2227;47.810;8.810;2022-11-23T09:39:42;23.70;57.50
4429;DHT22;2227;47.810;8.810;2022-11-23T09:52:32;26.80;50.80
4429;DHT22;2227;47.810;8.810;2022-11-23T09:55:04;27.20;50.70
4429;DHT22;2227;47.810;8.810;2022-11-23T09:57:35;27.80;49.80
4429;DHT22;2227;47.810;8.810;2022-11-23T10:00:15;27.80;48.60
4429;DHT22;2227;47.810;8.810;2022-11-23T10:02:41;28.00;47.90
4429;DHT22;2227;47.810;8.810;2022-11-23T10:05:20;27.40;46.80
4429;DHT22;2227;47.810;8.810;2022-11-23T10:11:19;27.00;48.40
4429;DHT22;2227;47.810;8.810;2022-11-23T10:14:19;27.30;47.80
4429;DHT22;2227;47.810;8.810;2022-11-23T10:17:02;27.00;48.70
4429;DHT22;2227;47.810;8.810;2022-11-23T10:22:57;27.80;47.00
4429;DHT22;2227;47.810;8.810;2022-11-23T10:25:25;28.00;46.50
4429;DHT22;2227;47.810;8.810;2022-11-23T10:28:00;27.80;45.40
4429;DHT22;2227;47.810;8.810;2022-11-23T10:30:28;26.40;45.50
4429;DHT22;2227;47.810;8.810;2022-11-23T10:38:19;24.40;50.10
4429;DHT22;2227;47.810;8.810;2022-11-23T10:43:25;24.40;49.30
4429;DHT22;2227;47.810;8.810;2022-11-23T10:46:22;22.30;51.50
4429;DHT22;2227;47.810;8.810;2022-11-23T10:48:50;21.10;53.70
4429;DHT22;2227;47.810;8.810;2022-11-23T10:51:30;21.00;54.00
4429;DHT22;2227;47.810;8.810;2022-11-23T10:54:04;21.80;53.60
4429;DHT22;2227;47.810;8.810;2022-11-23T10:56:32;21.60;53.30
4429;DHT22;2227;47.810;8.810;2022-11-23T10:59:00;22.10;52.30
4429;DHT22;2227;47.810;8.810;2022-11-23T11:01:27;22.50;52.00
4429;DHT22;2227;47.810;8.810;2022-11-23T11:04:01;22.70;51.20
4429;DHT22;2227;47.810;8.810;2022-11-23T11:06:32;22.50;51.20
4429;DHT22;2227;47.810;8.810;2022-11-23T11:09:02;22.40;52.00
4429;DHT22;2227;47.810;8.810;2022-11-23T11:11:38;23.20;52.50
4429;DHT22;2227;47.810;8.810;2022-11-23T11:14:19;23.30;51.30
4429;DHT22;2227;47.810;8.810;2022-11-23T11:16:54;22.80;51.20
4429;DHT22;2227;47.810;8.810;2022-11-23T11:21:58;20.20;56.00
4429;DHT22;2227;47.810;8.810;2022-11-23T11:24:36;19.20;59.20
4429;DHT22;2227;47.810;8.810;2022-11-23T11:27:10;19.60;59.70
4429;DHT22;2227;47.810;8.810;2022-11-23T11:29:46;20.30;58.50
4429;DHT22;2227;47.810;8.810;2022-11-23T11:32:23;21.50;56.50
4429;DHT22;2227;47.810;8.810;2022-11-23T11:37:48;22.00;54.10
4429;DHT22;2227;47.810;8.810;2022-11-23T11:40:31;22.50;55.40
4429;DHT22;2227;47.810;8.810;2022-11-23T11:43:10;23.10;54.10
4429;DHT22;2227;47.810;8.810;2022-11-23T11:45:45;23.00;51.70
4429;DHT22;2227;47.810;8.810;2022-11-23T11:48:40;22.00;55.10
4429;DHT22;2227;47.810;8.810;2022-11-23T11:51:28;21.90;55.20
4429;DHT22;2227;47.810;8.810;2022-11-23T11:56:53;21.30;56.50
4429;DHT22;2227;47.810;8.810;2022-11-23T11:59:25;21.20;56.50
4429;DHT22;2227;47.810;8.810;2022-11-23T12:02:13;20.10;58.70
4429;DHT22;2227;47.810;8.810;2022-11-23T12:05:07;19.70;58.10
4429;DHT22;2227;47.810;8.810;2022-11-23T12:07:43;19.30;59.90
4429;DHT22;2227;47.810;8.810;2022-11-23T12:10:13;19.50;59.50
4429;DHT22;2227;47.810;8.810;2022-11-23T12:12:41;19.70;59.10
4429;DHT22;2227;47.810;8.810;2022-11-23T12:15:17;19.50;59.30
4429;DHT22;2227;47.810;8.810;2022-11-23T12:18:36;18.20;59.80
4429;DHT22;2227;47.810;8.810;2022-11-23T12:23:57;16.50;67.70
4429;DHT22;2227;47.810;8.810;2022-11-23T12:29:41;15.00;69.60
4429;DHT22;2227;47.810;8.810;2022-11-23T12:32:36;14.20;74.10
4429;DHT22;2227;47.810;8.810;2022-11-23T12:49:25;14.50;74.50
4429;DHT22;2227;47.810;8.810;2022-11-23T12:57:22;14.20;76.90
4429;DHT22;2227;47.810;8.810;2022-11-23T13:00:11;14.30;75.80
4429;DHT22;2227;47.810;8.810;2022-11-23T13:05:46;14.60;72.70
4429;DHT22;2227;47.810;8.810;2022-11-23T13:08:40;13.60;76.40
4429;DHT22;2227;47.810;8.810;2022-11-23T13:15:15;13.20;77.50
4429;DHT22;2227;47.810;8.810;2022-11-23T13:17:12;13.20;79.10
4429;DHT22;2227;47.810;8.810;2022-11-23T13:22:56;13.90;79.70
4429;DHT22;2227;47.810;8.810;2022-11-23T13:25:26;14.10;78.30
4429;DHT22;2227;47.810;8.810;2022-11-23T13:28:03;14.30;76.10
4429;DHT22;2227;47.810;8.810;2022-11-23T13:30:36;14.40;76.20
4429;DHT22;2227;47.810;8.810;2022-11-23T13:33:25;14.10;76.90
4429;DHT22;2227;47.810;8.810;2022-11-23T13:35:59;13.90;78.10
4429;DHT22;2227;47.810;8.810;2022-11-23T13:38:45;13.80;78.50
4429;DHT22;2227;47.810;8.810;2022-11-23T13:44:22;14.10;78.00
4429;DHT22;2227;47.810;8.810;2022-11-23T13:46:56;13.90;78.60
4429;DHT22;2227;47.810;8.810;2022-11-23T13:57:37;13.30;83.80
4429;DHT22;2227;47.810;8.810;2022-11-23T14:06:22;14.20;84.20
4429;DHT22;2227;47.810;8.810;2022-11-23T14:08:51;14.00;80.70
4429;DHT22;2227;47.810;8.810;2022-11-23T14:11:21;13.40;82.30
4429;DHT22;2227;47.810;8.810;2022-11-23T14:14:00;13.10;84.30
4429;DHT22;2227;47.810;8.810;2022-11-23T14:28:04;11.20;91.60
4429;DHT22;2227;47.810;8.810;2022-11-23T14:30:52;11.00;93.00
4429;DHT22;2227;47.810;8.810;2022-11-23T14:41:39;10.70;96.00
4429;DHT22;2227;47.810;8.810;2022-11-23T14:44:10;10.60;96.10
4429;DHT22;2227;47.810;8.810;2022-11-23T14:47:07;10.50;97.70
4429;DHT22;2227;47.810;8.810;2022-11-23T14:49:36;10.30;98.20
4429;DHT22;2227;47.810;8.810;2022-11-23T14:52:03;10.20;99.90
4429;DHT22;2227;47.810;8.810;2022-11-23T14:54:31;10.30;99.90
4429;DHT22;2227;47.810;8.810;2022-11-23T14:57:00;10.30;99.90
4429;DHT22;2227;47.810;8.810;2022-11-23T14:59:38;10.30;99.90
4429;DHT22;2227;47.810;8.810;2022-11-23T15:02:28;10.40;99.90
4429;DHT22;2227;47.810;8.810;2022-11-23T15:08:05;10.20;99.90
4429;DHT22;2227;47.810;8.810;2022-11-23T15:10:37;10.10;99.90
4429;DHT22;2227;47.810;8.810;2022-11-23T15:13:20;9.80;99.90
4429;DHT22;2227;47.810;8.810;2022-11-23T15:15:50;9.80;99.90
4429;DHT22;2227;47.810;8.810;2022-11-23T15:18:34;9.80;99.90
4429;DHT22;2227;47.810;8.810;2022-11-23T15:21:25;9.80;99.90
4429;DHT22;2227;47.810;8.810;2022-11-23T15:23:55;9.70;99.90
4429;DHT22;2227;47.810;8.810;2022-11-23T15:26:25;9.60;99.90
4429;DHT22;2227;47.810;8.810;2022-11-23T15:29:31;9.70;99.90
4429;DHT22;2227;47.810;8.810;2022-11-23T15:32:00;9.70;99.90
4429;DHT22;2227;47.810;8.810;2022-11-23T15:34:48;9.60;99.90
4429;DHT22;2227;47.810;8.810;2022-11-23T15:37:16;9.60;99.90
4429;DHT22;2227;47.810;8.810;2022-11-23T15:39:43;9.60;99.90
4429;DHT22;2227;47.810;8.810;2022-11-23T15:42:14;9.60;99.90
4429;DHT22;2227;47.810;8.810;2022-11-23T15:44:43;9.60;99.90
4429;DHT22;2227;47.810;8.810;2022-11-23T15:47:23;9.40;99.90
4429;DHT22;2227;47.810;8.810;2022-11-23T15:49:58;9.20;99.90
4429;DHT22;2227;47.810;8.810;2022-11-23T15:52:32;9.20;99.90
4429;DHT22;2227;47.810;8.810;2022-11-23T15:55:12;9.00;99.90
4429;DHT22;2227;47.810;8.810;2022-11-23T15:57:40;8.90;99.90
4429;DHT22;2227;47.810;8.810;2022-11-23T16:00:21;8.80;99.90
4429;DHT22;2227;47.810;8.810;2022-11-23T16:02:49;8.80;99.90
4429;DHT22;2227;47.810;8.810;2022-11-23T16:05:19;8.70;99.90
4429;DHT22;2227;47.810;8.810;2022-11-23T16:08:00;8.70;99.90
4429;DHT22;2227;47.810;8.810;2022-11-23T16:10:33;8.80;99.90
4429;DHT22;2227;47.810;8.810;2022-11-23T16:13:02;8.80;99.90
4429;DHT22;2227;47.810;8.810;2022-11-23T16:20:49;8.90;99.90
4429;DHT22;2227;47.810;8.810;2022-11-23T16:23:20;8.80;99.90
4429;DHT22;2227;47.810;8.810;2022-11-23T16:28:27;8.70;99.90
4429;DHT22;2227;47.810;8.810;2022-11-23T16:30:54;8.80;99.90
4429;DHT22;2227;47.810;8.810;2022-11-23T16:33:23;8.70;99.90
4429;DHT22;2227;47.810;8.810;2022-11-23T16:35:50;8.70;99.90
4429;DHT22;2227;47.810;8.810;2022-11-23T16:38:18;8.60;99.90
4429;DHT22;2227;47.810;8.810;2022-11-23T16:40:45;8.60;99.90
4429;DHT22;2227;47.810;8.810;2022-11-23T16:43:14;8.60;99.90
4429;DHT22;2227;47.810;8.810;2022-11-23T16:45:46;8.50;99.90
4429;DHT22;2227;47.810;8.810;2022-11-23T16:50:54;8.30;99.90
4429;DHT22;2227;47.810;8.810;2022-11-23T16:53:22;8.40;99.90
4429;DHT22;2227;47.810;8.810;2022-11-23T16:55:52;8.40;99.90
4429;DHT22;2227;47.810;8.810;2022-11-23T16:58:19;8.40;99.90
4429;DHT22;2227;47.810;8.810;2022-11-23T17:03:16;8.10;99.90
4429;DHT22;2227;47.810;8.810;2022-11-23T17:05:43;7.90;99.90
4429;DHT22;2227;47.810;8.810;2022-11-23T17:08:10;7.90;99.90
4429;DHT22;2227;47.810;8.810;2022-11-23T17:10:38;7.90;99.90
4429;DHT22;2227;47.810;8.810;2022-11-23T17:13:11;8.00;99.90
4429;DHT22;2227;47.810;8.810;2022-11-23T17:15:39;7.80;99.90
4429;DHT22;2227;47.810;8.810;2022-11-23T17:18:12;7.70;99.90
4429;DHT22;2227;47.810;8.810;2022-11-23T17:20:40;7.60;99.90
4429;DHT22;2227;47.810;8.810;2022-11-23T17:23:07;7.70;99.90
4429;DHT22;2227;47.810;8.810;2022-11-23T17:25:34;7.90;99.90
4429;DHT22;2227;47.810;8.810;2022-11-23T17:28:03;8.00;99.90
4429;DHT22;2227;47.810;8.810;2022-11-23T17:30:30;7.60;99.90
4429;DHT22;2227;47.810;8.810;2022-11-23T17:32:58;7.50;99.90
4429;DHT22;2227;47.810;8.810;2022-11-23T17:35:25;7.50;99.90
4429;DHT22;2227;47.810;8.810;2022-11-23T17:37:52;7.50;99.90
4429;DHT22;2227;47.810;8.810;2022-11-23T17:40:21;7.60;99.90
4429;DHT22;2227;47.810;8.810;2022-11-23T17:42:48;7.60;99.90
4429;DHT22;2227;47.810;8.810;2022-11-23T17:45:15;7.60;99.90
4429;DHT22;2227;47.810;8.810;2022-11-23T17:47:43;7.60;99.90
4429;DHT22;2227;47.810;8.810;2022-11-23T17:50:15;7.30;99.90
4429;DHT22;2227;47.810;8.810;2022-11-23T17:52:45;7.40;99.90
4429;DHT22;2227;47.810;8.810;2022-11-23T17:55:12;7.50;99.90
4429;DHT22;2227;47.810;8.810;2022-11-23T17:57:40;7.50;99.90
4429;DHT22;2227;47.810;8.810;2022-11-23T18:00:14;7.40;99.90
4429;DHT22;2227;47.810;8.810;2022-11-23T18:02:42;7.40;99.90
4429;DHT22;2227;47.810;8.810;2022-11-23T18:05:09;7.30;99.90
4429;DHT22;2227;47.810;8.810;2022-11-23T18:07:36;7.30;99.90
4429;DHT22;2227;47.810;8.810;2022-11-23T18:10:04;7.20;99.90
4429;DHT22;2227;47.810;8.810;2022-11-23T18:12:30;7.20;99.90
4429;DHT22;2227;47.810;8.810;2022-11-23T18:14:57;7.10;99.90
4429;DHT22;2227;47.810;8.810;2022-11-23T18:17:24;7.00;99.90
4429;DHT22;2227;47.810;8.810;2022-11-23T18:19:50;7.00;99.90
4429;DHT22;2227;47.810;8.810;2022-11-23T18:22:17;7.00;99.90
4429;DHT22;2227;47.810;8.810;2022-11-23T18:24:44;6.90;99.90
4429;DHT22;2227;47.810;8.810;2022-11-23T18:27:11;6.90;99.90
4429;DHT22;2227;47.810;8.810;2022-11-23T18:29:39;6.90;99.90
4429;DHT22;2227;47.810;8.810;2022-11-23T18:32:06;6.90;99.90
4429;DHT22;2227;47.810;8.810;2022-11-23T18:34:34;7.00;99.90
4429;DHT22;2227;47.810;8.810;2022-11-23T18:37:01;7.00;99.90
4429;DHT22;2227;47.810;8.810;2022-11-23T18:39:27;7.00;99.90
4429;DHT22;2227;47.810;8.810;2022-11-23T18:41:54;7.00;99.90
4429;DHT22;2227;47.810;8.810;2022-11-23T18:44:25;7.10;99.90
4429;DHT22;2227;47.810;8.810;2022-11-23T18:46:52;7.10;99.90
4429;DHT22;2227;47.810;8.810;2022-11-23T18:49:19;7.10;99.90
4429;DHT22;2227;47.810;8.810;2022-11-23T18:51:46;7.20;99.90
4429;DHT22;2227;47.810;8.810;2022-11-23T18:54:12;7.20;99.90
4429;DHT22;2227;47.810;8.810;2022-11-23T18:56:39;7.00;99.90
4429;DHT22;2227;47.810;8.810;2022-11-23T18:59:06;7.00;99.90
4429;DHT22;2227;47.810;8.810;2022-11-23T19:01:44;7.00;99.90
4429;DHT22;2227;47.810;8.810;2022-11-23T19:04:11;7.10;99.90
4429;DHT22;2227;47.810;8.810;2022-11-23T19:06:38;7.20;99.90
4429;DHT22;2227;47.810;8.810;2022-11-23T19:09:05;7.10;99.90
4429;DHT22;2227;47.810;8.810;2022-11-23T19:11:31;7.10;99.90
4429;DHT22;2227;47.810;8.810;2022-11-23T19:13:58;7.10;99.90
4429;DHT22;2227;47.810;8.810;2022-11-23T19:16:31;7.20;99.90
4429;DHT22;2227;47.810;8.810;2022-11-23T19:19:02;7.20;99.90
4429;DHT22;2227;47.810;8.810;2022-11-23T19:21:30;7.30;99.90
4429;DHT22;2227;47.810;8.810;2022-11-23T19:23:58;7.30;99.90
4429;DHT22;2227;47.810;8.810;2022-11-23T19:26:26;7.30;99.90
4429;DHT22;2227;47.810;8.810;2022-11-23T19:28:54;7.30;99.90
4429;DHT22;2227;47.810;8.810;2022-11-23T19:31:21;7.40;99.90
4429;DHT22;2227;47.810;8.810;2022-11-23T19:33:49;7.40;99.90
4429;DHT22;2227;47.810;8.810;2022-11-23T19:36:18;7.50;99.90
4429;DHT22;2227;47.810;8.810;2022-11-23T19:38:46;7.50;99.90
4429;DHT22;2227;47.810;8.810;2022-11-23T19:41:14;7.40;99.90
4429;DHT22;2227;47.810;8.810;2022-11-23T19:43:41;7.40;99.90
4429;DHT22;2227;47.810;8.810;2022-11-23T19:46:10;7.40;99.90
4429;DHT22;2227;47.810;8.810;2022-11-23T19:48:38;7.40;99.90
4429;DHT22;2227;47.810;8.810;2022-11-23T19:51:09;7.40;99.90
4429;DHT22;2227;47.810;8.810;2022-11-23T19:53:37;7.40;99.90
4429;DHT22;2227;47.810;8.810;2022-11-23T19:56:21;7.40;99.90
4429;DHT22;2227;47.810;8.810;2022-11-23T19:58:50;7.40;99.90
4429;DHT22;2227;47.810;8.810;2022-11-23T20:01:20;7.40;99.90
4429;DHT22;2227;47.810;8.810;2022-11-23T20:03:49;7.40;99.90
4429;DHT22;2227;47.810;8.810;2022-11-23T20:06:23;7.50;99.90
4429;DHT22;2227;47.810;8.810;2022-11-23T20:08:58;7.50;99.90
4429;DHT22;2227;47.810;8.810;2022-11-23T20:11:28;7.60;99.90
4429;DHT22;2227;47.810;8.810;2022-11-23T20:13:55;7.60;99.90
4429;DHT22;2227;47.810;8.810;2022-11-23T20:16:23;7.60;99.90
4429;DHT22;2227;47.810;8.810;2022-11-23T20:18:56;7.60;99.90
4429;DHT22;2227;47.810;8.810;2022-11-23T20:21:26;7.60;99.90
4429;DHT22;2227;47.810;8.810;2022-11-23T20:23:55;7.60;99.90
4429;DHT22;2227;47.810;8.810;2022-11-23T20:26:29;7.50;99.90
4429;DHT22;2227;47.810;8.810;2022-11-23T20:28:57;7.60;99.90
4429;DHT22;2227;47.810;8.810;2022-11-23T20:31:26;7.60;99.90
4429;DHT22;2227;47.810;8.810;2022-11-23T20:33:54;7.60;99.90
4429;DHT22;2227;47.810;8.810;2022-11-23T20:36:27;7.50;99.90
4429;DHT22;2227;47.810;8.810;2022-11-23T20:38:54;7.50;99.90
4429;DHT22;2227;47.810;8.810;2022-11-23T20:41:24;7.50;99.90
4429;DHT22;2227;47.810;8.810;2022-11-23T20:43:57;7.50;99.90
4429;DHT22;2227;47.810;8.810;2022-11-23T20:46:25;7.60;99.90
4429;DHT22;2227;47.810;8.810;2022-11-23T20:49:12;7.60;99.90
4429;DHT22;2227;47.810;8.810;2022-11-23T20:51:39;7.70;99.90
4429;DHT22;2227;47.810;8.810;2022-11-23T20:54:07;7.60;99.90
4429;DHT22;2227;47.810;8.810;2022-11-23T20:56:36;7.70;99.90
4429;DHT22;2227;47.810;8.810;2022-11-23T20:59:02;7.70;99.90
4429;DHT22;2227;47.810;8.810;2022-11-23T21:01:30;7.70;99.90
4429;DHT22;2227;47.810;8.810;2022-11-23T21:03:58;7.70;99.90
4429;DHT22;2227;47.810;8.810;2022-11-23T21:06:26;7.70;99.90
4429;DHT22;2227;47.810;8.810;2022-11-23T21:08:53;7.80;99.90
4429;DHT22;2227;47.810;8.810;2022-11-23T21:11:27;7.80;99.90
4429;DHT22;2227;47.810;8.810;2022-11-23T21:14:18;7.80;99.90
4429;DHT22;2227;47.810;8.810;2022-11-23T21:16:48;7.90;99.90
4429;DHT22;2227;47.810;8.810;2022-11-23T21:19:20;7.90;99.90
4429;DHT22;2227;47.810;8.810;2022-11-23T21:21:48;7.90;99.90
4429;DHT22;2227;47.810;8.810;2022-11-23T21:24:15;7.90;99.90
4429;DHT22;2227;47.810;8.810;2022-11-23T21:26:42;7.90;99.90
4429;DHT22;2227;47.810;8.810;2022-11-23T21:29:08;7.90;99.90
4429;DHT22;2227;47.810;8.810;2022-11-23T21:31:38;7.90;99.90
4429;DHT22;2227;47.810;8.810;2022-11-23T21:34:05;7.90;99.90
4429;DHT22;2227;47.810;8.810;2022-11-23T21:36:38;7.90;99.90
4429;DHT22;2227;47.810;8.810;2022-11-23T21:39:07;7.90;99.90
4429;DHT22;2227;47.810;8.810;2022-11-23T21:41:34;7.90;99.90
4429;DHT22;2227;47.810;8.810;2022-11-23T21:44:02;8.00;99.90
4429;DHT22;2227;47.810;8.810;2022-11-23T21:46:29;7.90;99.90
4429;DHT22;2227;47.810;8.810;2022-11-23T21:48:57;7.90;99.90
4429;DHT22;2227;47.810;8.810;2022-11-23T21:51:26;7.80;99.90
4429;DHT22;2227;47.810;8.810;2022-11-23T21:53:58;7.80;99.90
4429;DHT22;2227;47.810;8.810;2022-11-23T21:56:26;7.70;99.90
4429;DHT22;2227;47.810;8.810;2022-11-23T21:58:54;7.60;99.90
4429;DHT22;2227;47.810;8.810;2022-11-23T22:01:28;7.60;99.90
4429;DHT22;2227;47.810;8.810;2022-11-23T22:04:00;7.60;99.90
4429;DHT22;2227;47.810;8.810;2022-11-23T22:06:28;7.60;99.90
4429;DHT22;2227;47.810;8.810;2022-11-23T22:08:56;7.50;99.90
4429;DHT22;2227;47.810;8.810;2022-11-23T22:11:25;7.40;99.90
4429;DHT22;2227;47.810;8.810;2022-11-23T22:13:54;7.40;99.90
4429;DHT22;2227;47.810;8.810;2022-11-23T22:16:26;7.40;99.90
4429;DHT22;2227;47.810;8.810;2022-11-23T22:18:54;7.40;99.90
4429;DHT22;2227;47.810;8.810;2022-11-23T22:21:24;7.50;99.90
4429;DHT22;2227;47.810;8.810;2022-11-23T22:23:51;7.40;99.90
4429;DHT22;2227;47.810;8.810;2022-11-23T22:26:19;7.50;99.90
4429;DHT22;2227;47.810;8.810;2022-11-23T22:28:50;7.50;99.90
4429;DHT22;2227;47.810;8.810;2022-11-23T22:31:19;7.50;99.90
4429;DHT22;2227;47.810;8.810;2022-11-23T22:33:46;7.40;99.90
4429;DHT22;2227;47.810;8.810;2022-11-23T22:36:19;7.40;99.90
4429;DHT22;2227;47.810;8.810;2022-11-23T22:38:46;7.30;99.90
4429;DHT22;2227;47.810;8.810;2022-11-23T22:41:15;7.30;99.90
4429;DHT22;2227;47.810;8.810;2022-11-23T22:43:42;7.20;99.90
4429;DHT22;2227;47.810;8.810;2022-11-23T22:46:14;7.20;99.90
4429;DHT22;2227;47.810;8.810;2022-11-23T22:48:43;7.20;99.90
4429;DHT22;2227;47.810;8.810;2022-11-23T22:51:14;7.30;99.90
4429;DHT22;2227;47.810;8.810;2022-11-23T22:53:41;7.40;99.90
4429;DHT22;2227;47.810;8.810;2022-11-23T22:56:14;7.40;99.90
4429;DHT22;2227;47.810;8.810;2022-11-23T22:58:43;7.40;99.90
4429;DHT22;2227;47.810;8.810;2022-11-23T23:01:24;7.40;99.90
4429;DHT22;2227;47.810;8.810;2022-11-23T23:03:53;7.40;99.90
4429;DHT22;2227;47.810;8.810;2022-11-23T23:06:23;7.40;99.90
4429;DHT22;2227;47.810;8.810;2022-11-23T23:08:54;7.40;99.90
4429;DHT22;2227;47.810;8.810;2022-11-23T23:11:23;7.40;99.90
4429;DHT22;2227;47.810;8.810;2022-11-23T23:13:50;7.50;99.90
4429;DHT22;2227;47.810;8.810;2022-11-23T23:16:17;7.50;99.90
4429;DHT22;2227;47.810;8.810;2022-11-23T23:18:44;7.50;99.90
4429;DHT22;2227;47.810;8.810;2022-11-23T23:21:21;7.40;99.90
4429;DHT22;2227;47.810;8.810;2022-11-23T23:23:50;7.40;99.90